Isabella, Tennessee
Current Conditions -  °F | °C
As of 6:55 AM on Friday 24 Oct 2014 (Local Time) from KRZR Reporting Station
Clear Clear  
Wind Chill:   Ceiling: Unl
Heat Index:   Visibility: 10mi
Dew Point:   Wind: 3mph
Humidity: 93%   Direction: 40°NE
Pressure: 30.1"   Gusts: NA
Location:  35.0276°N, 84.3551°W
Report Text: KRZR 241055Z AUTO 04003KT 10SM CLR 07/06 A3010 RMK
Loading
Personal Weather Stations






























Interactive Weather Map
Tropical Storm Tracking
New forecast layout! Learn more

10-Day Weather Forecast

Advertisements
Track Severe Weather on mobile